sensor_id;sensor_type;location;lat;lon;timestamp;pressure;altitude;pressure_sealevel;temperature;humidity
2294;BME280;1155;42.644;23.264;2023-05-01T00:02:48;60109.84;;;-140.67;100.00
2294;BME280;1155;42.644;23.264;2023-05-01T00:05:38;60130.31;;;-140.67;100.00
2294;BME280;1155;42.644;23.264;2023-05-01T00:08:26;60113.94;;;-140.67;100.00
2294;BME280;1155;42.644;23.264;2023-05-01T00:11:47;60097.56;;;-140.67;100.00
2294;BME280;1155;42.644;23.264;2023-05-01T00:14:45;60099.59;;;-140.67;100.00
2294;BME280;1155;42.644;23.264;2023-05-01T00:17:39;60116.00;;;-140.67;100.00
2294;BME280;1155;42.644;23.264;2023-05-01T00:21:04;60118.03;;;-140.67;100.00
2294;BME280;1155;42.644;23.264;2023-05-01T00:24:27;60109.84;;;-140.67;100.00
2294;BME280;1155;42.644;23.264;2023-05-01T00:27:26;60109.84;;;-140.67;100.00
2294;BME280;1155;42.644;23.264;2023-05-01T00:30:52;60138.50;;;-140.67;100.00
2294;BME280;1155;42.644;23.264;2023-05-01T00:33:51;60113.94;;;-140.67;100.00
2294;BME280;1155;42.644;23.264;2023-05-01T00:37:05;60101.66;;;-140.67;100.00
2294;BME280;1155;42.644;23.264;2023-05-01T00:43:34;60128.28;;;-140.67;100.00
2294;BME280;1155;42.644;23.264;2023-05-01T00:46:25;60126.22;;;-140.67;100.00
2294;BME280;1155;42.644;23.264;2023-05-01T00:49:13;60130.31;;;-140.67;100.00
2294;BME280;1155;42.644;23.264;2023-05-01T00:52:24;60132.38;;;-140.67;100.00
2294;BME280;1155;42.644;23.264;2023-05-01T00:55:28;60128.28;;;-140.67;100.00
2294;BME280;1155;42.644;23.264;2023-05-01T00:58:13;60122.13;;;-140.67;100.00
2294;BME280;1155;42.644;23.264;2023-05-01T01:01:46;60130.31;;;-140.67;100.00
2294;BME280;1155;42.644;23.264;2023-05-01T01:04:46;60118.03;;;-140.67;100.00
2294;BME280;1155;42.644;23.264;2023-05-01T01:07:22;60109.84;;;-140.67;100.00
2294;BME280;1155;42.644;23.264;2023-05-01T01:10:33;60109.84;;;-140.67;100.00
2294;BME280;1155;42.644;23.264;2023-05-01T01:13:35;60109.84;;;-140.67;100.00
2294;BME280;1155;42.644;23.264;2023-05-01T01:23:03;60138.50;;;-140.67;100.00
2294;BME280;1155;42.644;23.264;2023-05-01T01:26:23;60113.94;;;-140.67;100.00
2294;BME280;1155;42.644;23.264;2023-05-01T01:29:51;60101.66;;;-140.67;100.00
2294;BME280;1155;42.644;23.264;2023-05-01T01:33:00;60134.41;;;-140.67;100.00
2294;BME280;1155;42.644;23.264;2023-05-01T01:36:04;60113.94;;;-140.67;100.00
2294;BME280;1155;42.644;23.264;2023-05-01T01:39:06;60132.38;;;-140.67;100.00
2294;BME280;1155;42.644;23.264;2023-05-01T01:42:28;60122.13;;;-140.67;100.00
2294;BME280;1155;42.644;23.264;2023-05-01T01:45:28;60138.50;;;-140.67;100.00
2294;BME280;1155;42.644;23.264;2023-05-01T01:48:42;60126.22;;;-140.67;100.00
2294;BME280;1155;42.644;23.264;2023-05-01T01:51:36;60134.41;;;-140.67;100.00
2294;BME280;1155;42.644;23.264;2023-05-01T01:54:34;60142.59;;;-140.67;100.00
2294;BME280;1155;42.644;23.264;2023-05-01T01:57:38;60146.72;;;-140.67;100.00
2294;BME280;1155;42.644;23.264;2023-05-01T02:00:36;60130.31;;;-140.67;100.00
2294;BME280;1155;42.644;23.264;2023-05-01T02:03:28;60126.22;;;-140.67;100.00
2294;BME280;1155;42.644;23.264;2023-05-01T02:06:40;60093.47;;;-140.67;100.00
2294;BME280;1155;42.644;23.264;2023-05-01T02:09:34;60140.56;;;-140.67;100.00
2294;BME280;1155;42.644;23.264;2023-05-01T02:12:12;60113.94;;;-140.67;100.00
2294;BME280;1155;42.644;23.264;2023-05-01T02:15:11;60122.13;;;-140.67;100.00
2294;BME280;1155;42.644;23.264;2023-05-01T02:18:08;60140.56;;;-140.67;100.00
2294;BME280;1155;42.644;23.264;2023-05-01T02:24:22;60113.94;;;-140.67;100.00
2294;BME280;1155;42.644;23.264;2023-05-01T02:27:15;60113.94;;;-140.67;100.00
2294;BME280;1155;42.644;23.264;2023-05-01T02:29:54;60111.91;;;-140.67;100.00
2294;BME280;1155;42.644;23.264;2023-05-01T02:32:57;60138.50;;;-140.67;100.00
2294;BME280;1155;42.644;23.264;2023-05-01T02:36:05;60109.84;;;-140.67;100.00
2294;BME280;1155;42.644;23.264;2023-05-01T02:39:06;60095.50;;;-140.67;100.00
2294;BME280;1155;42.644;23.264;2023-05-01T02:42:42;60154.91;;;-140.67;100.00
2294;BME280;1155;42.644;23.264;2023-05-01T02:45:31;60120.09;;;-140.67;100.00
2294;BME280;1155;42.644;23.264;2023-05-01T02:48:19;60120.09;;;-140.67;100.00
2294;BME280;1155;42.644;23.264;2023-05-01T02:51:11;60105.75;;;-140.67;100.00
2294;BME280;1155;42.644;23.264;2023-05-01T02:54:12;60101.66;;;-140.67;100.00
2294;BME280;1155;42.644;23.264;2023-05-01T02:57:15;60130.31;;;-140.67;100.00
2294;BME280;1155;42.644;23.264;2023-05-01T03:00:09;60118.03;;;-140.67;100.00
2294;BME280;1155;42.644;23.264;2023-05-01T03:03:14;60118.03;;;-140.67;100.00
2294;BME280;1155;42.644;23.264;2023-05-01T03:06:17;60142.59;;;-140.67;100.00
2294;BME280;1155;42.644;23.264;2023-05-01T03:08:59;60130.31;;;-140.67;100.00
2294;BME280;1155;42.644;23.264;2023-05-01T03:12:15;60116.00;;;-140.67;100.00
2294;BME280;1155;42.644;23.264;2023-05-01T03:15:10;60105.75;;;-140.67;100.00
2294;BME280;1155;42.644;23.264;2023-05-01T03:18:17;60113.94;;;-140.67;100.00
2294;BME280;1155;42.644;23.264;2023-05-01T03:21:28;60113.94;;;-140.67;100.00
2294;BME280;1155;42.644;23.264;2023-05-01T03:24:16;60159.00;;;-140.67;100.00
2294;BME280;1155;42.644;23.264;2023-05-01T03:26:56;60101.66;;;-140.67;100.00
2294;BME280;1155;42.644;23.264;2023-05-01T03:33:15;60130.31;;;-140.67;100.00
2294;BME280;1155;42.644;23.264;2023-05-01T03:36:15;60124.19;;;-140.67;100.00
2294;BME280;1155;42.644;23.264;2023-05-01T03:39:08;60118.03;;;-140.67;100.00
2294;BME280;1155;42.644;23.264;2023-05-01T03:42:20;60109.84;;;-140.67;100.00
2294;BME280;1155;42.644;23.264;2023-05-01T03:45:07;60142.59;;;-140.67;100.00
2294;BME280;1155;42.644;23.264;2023-05-01T03:48:15;60120.09;;;-140.67;100.00
2294;BME280;1155;42.644;23.264;2023-05-01T03:51:05;60111.91;;;-140.67;100.00
2294;BME280;1155;42.644;23.264;2023-05-01T03:54:08;60144.66;;;-140.67;100.00
2294;BME280;1155;42.644;23.264;2023-05-01T03:57:03;60136.47;;;-140.67;100.00
2294;BME280;1155;42.644;23.264;2023-05-01T03:59:46;60134.41;;;-140.67;100.00
2294;BME280;1155;42.644;23.264;2023-05-01T04:02:48;60126.22;;;-140.67;100.00
2294;BME280;1155;42.644;23.264;2023-05-01T04:05:54;60122.13;;;-140.67;100.00
2294;BME280;1155;42.644;23.264;2023-05-01T04:09:03;60152.84;;;-140.67;100.00
2294;BME280;1155;42.644;23.264;2023-05-01T04:11:53;60138.50;;;-140.67;100.00
2294;BME280;1155;42.644;23.264;2023-05-01T04:14:34;60113.94;;;-140.67;100.00
2294;BME280;1155;42.644;23.264;2023-05-01T04:17:31;60116.00;;;-140.67;100.00
2294;BME280;1155;42.644;23.264;2023-05-01T04:26:58;60134.41;;;-140.67;100.00
2294;BME280;1155;42.644;23.264;2023-05-01T04:30:03;60136.47;;;-140.67;100.00
2294;BME280;1155;42.644;23.264;2023-05-01T04:33:26;60126.22;;;-140.67;100.00
2294;BME280;1155;42.644;23.264;2023-05-01T04:36:57;60138.50;;;-140.67;100.00
2294;BME280;1155;42.644;23.264;2023-05-01T04:39:50;60132.38;;;-140.67;100.00
2294;BME280;1155;42.644;23.264;2023-05-01T04:43:01;60154.91;;;-140.67;100.00
2294;BME280;1155;42.644;23.264;2023-05-01T04:45:57;60120.09;;;-140.67;100.00
2294;BME280;1155;42.644;23.264;2023-05-01T04:48:59;60138.50;;;-140.67;100.00
2294;BME280;1155;42.644;23.264;2023-05-01T04:55:38;60161.03;;;-140.67;100.00
2294;BME280;1155;42.644;23.264;2023-05-01T04:58:21;60130.31;;;-140.67;100.00
2294;BME280;1155;42.644;23.264;2023-05-01T05:00:52;60163.09;;;-140.67;100.00
2294;BME280;1155;42.644;23.264;2023-05-01T05:03:21;60124.19;;;-140.67;100.00
2294;BME280;1155;42.644;23.264;2023-05-01T05:05:54;60113.94;;;-140.67;100.00
2294;BME280;1155;42.644;23.264;2023-05-01T05:08:32;60146.72;;;-140.67;100.00
2294;BME280;1155;42.644;23.264;2023-05-01T05:11:07;60132.38;;;-140.67;100.00
2294;BME280;1155;42.644;23.264;2023-05-01T05:13:48;60130.31;;;-140.67;100.00
2294;BME280;1155;42.644;23.264;2023-05-01T05:16:27;60103.69;;;-140.67;100.00
2294;BME280;1155;42.644;23.264;2023-05-01T05:19:07;60150.81;;;-140.67;100.00
2294;BME280;1155;42.644;23.264;2023-05-01T05:21:53;60140.56;;;-140.67;100.00
2294;BME280;1155;42.644;23.264;2023-05-01T05:24:46;60144.66;;;-140.67;100.00
2294;BME280;1155;42.644;23.264;2023-05-01T05:27:19;60146.72;;;-140.67;100.00
2294;BME280;1155;42.644;23.264;2023-05-01T05:30:15;60142.59;;;-140.67;100.00
2294;BME280;1155;42.644;23.264;2023-05-01T05:33:01;60130.31;;;-140.67;100.00
2294;BME280;1155;42.644;23.264;2023-05-01T05:35:51;60142.59;;;-140.67;100.00
2294;BME280;1155;42.644;23.264;2023-05-01T05:38:52;60138.50;;;-140.67;100.00
2294;BME280;1155;42.644;23.264;2023-05-01T05:41:35;60118.03;;;-140.67;100.00
2294;BME280;1155;42.644;23.264;2023-05-01T05:44:30;60142.59;;;-140.67;100.00
2294;BME280;1155;42.644;23.264;2023-05-01T05:47:09;60118.03;;;-140.67;100.00
2294;BME280;1155;42.644;23.264;2023-05-01T05:49:55;60122.13;;;-140.67;100.00
2294;BME280;1155;42.644;23.264;2023-05-01T05:52:35;60134.41;;;-140.67;100.00
2294;BME280;1155;42.644;23.264;2023-05-01T05:55:31;60138.50;;;-140.67;100.00
2294;BME280;1155;42.644;23.264;2023-05-01T05:58:18;60167.19;;;-140.67;100.00
2294;BME280;1155;42.644;23.264;2023-05-01T06:01:13;60150.81;;;-140.67;100.00
2294;BME280;1155;42.644;23.264;2023-05-01T06:04:25;60163.09;;;-140.67;100.00
2294;BME280;1155;42.644;23.264;2023-05-01T06:07:08;60136.47;;;-140.67;100.00
2294;BME280;1155;42.644;23.264;2023-05-01T06:09:41;60138.50;;;-140.67;100.00
2294;BME280;1155;42.644;23.264;2023-05-01T06:12:29;60154.91;;;-140.67;100.00
2294;BME280;1155;42.644;23.264;2023-05-01T06:15:26;60138.50;;;-140.67;100.00
2294;BME280;1155;42.644;23.264;2023-05-01T06:18:46;60150.81;;;-140.67;100.00
2294;BME280;1155;42.644;23.264;2023-05-01T06:22:00;60124.19;;;-140.67;100.00
2294;BME280;1155;42.644;23.264;2023-05-01T06:24:57;60156.94;;;-140.67;100.00
2294;BME280;1155;42.644;23.264;2023-05-01T06:28:15;60163.09;;;-140.67;100.00
2294;BME280;1155;42.644;23.264;2023-05-01T06:31:09;60150.81;;;-140.67;100.00
2294;BME280;1155;42.644;23.264;2023-05-01T06:34:07;60146.72;;;-140.67;100.00
2294;BME280;1155;42.644;23.264;2023-05-01T06:37:07;60171.28;;;-140.67;100.00
2294;BME280;1155;42.644;23.264;2023-05-01T06:40:15;60159.00;;;-140.67;100.00
2294;BME280;1155;42.644;23.264;2023-05-01T06:43:00;60185.59;;;-140.67;100.00
2294;BME280;1155;42.644;23.264;2023-05-01T06:45:46;60159.00;;;-140.67;100.00
2294;BME280;1155;42.644;23.264;2023-05-01T06:52:33;60154.91;;;-140.67;100.00
2294;BME280;1155;42.644;23.264;2023-05-01T06:55:22;60173.31;;;-140.67;100.00
2294;BME280;1155;42.644;23.264;2023-05-01T06:57:55;60169.22;;;-140.67;100.00
2294;BME280;1155;42.644;23.264;2023-05-01T07:00:28;60181.50;;;-140.67;100.00
2294;BME280;1155;42.644;23.264;2023-05-01T07:06:25;60187.66;;;-140.67;91.98
2294;BME280;1155;42.644;23.264;2023-05-01T07:09:38;60167.19;;;-140.67;78.33
2294;BME280;1155;42.644;23.264;2023-05-01T07:12:50;60154.91;;;-140.67;85.90
2294;BME280;1155;42.644;23.264;2023-05-01T07:15:18;60171.28;;;-140.67;85.23
2294;BME280;1155;42.644;23.264;2023-05-01T07:18:14;60159.00;;;-140.67;73.71
2294;BME280;1155;42.644;23.264;2023-05-01T07:20:53;60169.22;;;-140.67;78.57
2294;BME280;1155;42.644;23.264;2023-05-01T07:23:37;60199.94;;;-140.67;64.25
2294;BME280;1155;42.644;23.264;2023-05-01T07:26:42;60171.28;;;-140.67;66.03
2294;BME280;1155;42.644;23.264;2023-05-01T07:29:37;60216.31;;;-140.67;56.80
2294;BME280;1155;42.644;23.264;2023-05-01T07:32:35;60179.47;;;-140.67;58.30
2294;BME280;1155;42.644;23.264;2023-05-01T07:35:27;60163.09;;;-140.67;60.28
2294;BME280;1155;42.644;23.264;2023-05-01T07:38:21;60185.59;;;-140.67;56.50
2294;BME280;1155;42.644;23.264;2023-05-01T07:41:18;60191.75;;;-140.67;66.77
2294;BME280;1155;42.644;23.264;2023-05-01T07:44:28;60183.56;;;-140.67;51.68
2294;BME280;1155;42.644;23.264;2023-05-01T07:47:35;60163.09;;;-140.67;50.41
2294;BME280;1155;42.644;23.264;2023-05-01T07:50:42;60187.66;;;-140.67;49.32
2294;BME280;1155;42.644;23.264;2023-05-01T07:53:46;60171.28;;;-140.67;46.80
2294;BME280;1155;42.644;23.264;2023-05-01T07:56:41;60193.81;;;-140.67;46.79
2294;BME280;1155;42.644;23.264;2023-05-01T07:59:59;60197.91;;;-140.67;46.04
2294;BME280;1155;42.644;23.264;2023-05-01T08:02:37;60208.13;;;-140.67;47.95
2294;BME280;1155;42.644;23.264;2023-05-01T08:05:16;60167.19;;;-140.67;49.62
2294;BME280;1155;42.644;23.264;2023-05-01T08:07:46;60173.31;;;-140.67;45.71
2294;BME280;1155;42.644;23.264;2023-05-01T08:10:17;60187.66;;;-140.67;41.38
2294;BME280;1155;42.644;23.264;2023-05-01T08:12:48;60179.47;;;-140.67;44.24
2294;BME280;1155;42.644;23.264;2023-05-01T08:15:52;60169.22;;;-140.67;42.18
2294;BME280;1155;42.644;23.264;2023-05-01T08:18:47;60199.94;;;-140.67;49.16
2294;BME280;1155;42.644;23.264;2023-05-01T08:21:59;60191.75;;;-140.67;40.68
2294;BME280;1155;42.644;23.264;2023-05-01T08:25:11;60173.31;;;-140.67;47.28
2294;BME280;1155;42.644;23.264;2023-05-01T08:28:05;60220.41;;;-140.67;41.44
2294;BME280;1155;42.644;23.264;2023-05-01T08:31:10;60208.13;;;-140.67;43.05
2294;BME280;1155;42.644;23.264;2023-05-01T08:34:10;60191.75;;;-140.67;39.24
2294;BME280;1155;42.644;23.264;2023-05-01T08:37:22;60216.31;;;-140.67;40.15
2294;BME280;1155;42.644;23.264;2023-05-01T08:40:16;60208.13;;;-140.67;39.26
2294;BME280;1155;42.644;23.264;2023-05-01T08:43:17;60234.75;;;-140.67;38.73
2294;BME280;1155;42.644;23.264;2023-05-01T08:46:32;60240.91;;;-140.67;36.61
2294;BME280;1155;42.644;23.264;2023-05-01T08:49:14;60216.31;;;-140.67;31.28
2294;BME280;1155;42.644;23.264;2023-05-01T08:52:16;60208.13;;;-140.67;32.84
2294;BME280;1155;42.644;23.264;2023-05-01T08:55:19;60204.03;;;-140.67;32.51
2294;BME280;1155;42.644;23.264;2023-05-01T08:58:17;60224.53;;;-140.67;30.84
2294;BME280;1155;42.644;23.264;2023-05-01T09:01:00;60216.31;;;-140.67;30.61
2294;BME280;1155;42.644;23.264;2023-05-01T09:07:32;60240.91;;;-140.67;32.92
2294;BME280;1155;42.644;23.264;2023-05-01T09:10:41;60210.19;;;-140.67;32.18
2294;BME280;1155;42.644;23.264;2023-05-01T09:13:49;60204.03;;;-140.67;30.11
2294;BME280;1155;42.644;23.264;2023-05-01T09:16:40;60204.03;;;-140.67;29.74
2294;BME280;1155;42.644;23.264;2023-05-01T09:19:23;60232.72;;;-140.67;28.89
2294;BME280;1155;42.644;23.264;2023-05-01T09:22:13;60191.75;;;-140.67;29.90
2294;BME280;1155;42.644;23.264;2023-05-01T09:25:25;60247.03;;;-140.67;30.80
2294;BME280;1155;42.644;23.264;2023-05-01T09:31:49;60257.28;;;-140.67;28.96
2294;BME280;1155;42.644;23.264;2023-05-01T09:34:41;60253.19;;;-140.67;29.75
2294;BME280;1155;42.644;23.264;2023-05-01T09:37:38;60253.19;;;-140.67;28.85
2294;BME280;1155;42.644;23.264;2023-05-01T09:40:45;60281.84;;;-140.67;27.69
2294;BME280;1155;42.644;23.264;2023-05-01T09:43:51;60216.31;;;-140.67;30.79
2294;BME280;1155;42.644;23.264;2023-05-01T09:46:48;60228.63;;;-140.67;28.88
2294;BME280;1155;42.644;23.264;2023-05-01T09:49:48;60247.03;;;-140.67;30.14
2294;BME280;1155;42.644;23.264;2023-05-01T09:56:04;60187.66;;;-140.67;30.46
2294;BME280;1155;42.644;23.264;2023-05-01T09:59:18;60191.75;;;-140.67;30.95
2294;BME280;1155;42.644;23.264;2023-05-01T10:02:21;60202.00;;;-140.67;31.08
2294;BME280;1155;42.644;23.264;2023-05-01T10:05:16;60179.47;;;-140.67;31.99
2294;BME280;1155;42.644;23.264;2023-05-01T10:08:15;60193.81;;;-140.67;33.06
2294;BME280;1155;42.644;23.264;2023-05-01T10:17:56;60191.75;;;-140.67;31.60
2294;BME280;1155;42.644;23.264;2023-05-01T10:20:41;60245.00;;;-140.67;29.26
2294;BME280;1155;42.644;23.264;2023-05-01T10:23:30;60232.72;;;-140.67;28.29
2294;BME280;1155;42.644;23.264;2023-05-01T10:26:32;60265.47;;;-140.67;28.84
2294;BME280;1155;42.644;23.264;2023-05-01T10:29:20;60242.94;;;-140.67;28.82
2294;BME280;1155;42.644;23.264;2023-05-01T10:35:54;60236.81;;;-140.67;30.74
2294;BME280;1155;42.644;23.264;2023-05-01T10:38:47;60273.66;;;-140.67;30.63
2294;BME280;1155;42.644;23.264;2023-05-01T10:42:03;60240.91;;;-140.67;30.71
2294;BME280;1155;42.644;23.264;2023-05-01T10:45:35;60238.84;;;-140.67;30.05
2294;BME280;1155;42.644;23.264;2023-05-01T10:55:43;60277.75;;;-140.67;30.45
2294;BME280;1155;42.644;23.264;2023-05-01T10:58:56;60265.47;;;-140.67;31.13
2294;BME280;1155;42.644;23.264;2023-05-01T11:05:18;60273.66;;;-140.67;28.95
2294;BME280;1155;42.644;23.264;2023-05-01T11:08:41;60296.19;;;-140.67;28.22
2294;BME280;1155;42.644;23.264;2023-05-01T11:18:47;60388.34;;;-140.67;24.96
2294;BME280;1155;42.644;23.264;2023-05-01T11:21:34;60412.91;;;-140.67;24.57
2294;BME280;1155;42.644;23.264;2023-05-01T11:24:51;60384.25;;;-140.67;25.00
2294;BME280;1155;42.644;23.264;2023-05-01T11:28:11;60388.34;;;-140.67;24.61
2294;BME280;1155;42.644;23.264;2023-05-01T11:31:18;60351.47;;;-140.67;26.26
2294;BME280;1155;42.644;23.264;2023-05-01T11:34:38;60333.06;;;-140.67;26.00
2294;BME280;1155;42.644;23.264;2023-05-01T11:37:55;60300.28;;;-140.67;30.90
2294;BME280;1155;42.644;23.264;2023-05-01T11:42:02;60253.19;;;-140.67;45.78
2294;BME280;1155;42.644;23.264;2023-05-01T11:44:44;60242.94;;;-140.67;42.94
2294;BME280;1155;42.644;23.264;2023-05-01T11:48:07;60187.66;;;-140.67;100.00
2294;BME280;1155;42.644;23.264;2023-05-01T11:51:50;60193.81;;;-140.67;100.00
2294;BME280;1155;42.644;23.264;2023-05-01T11:54:58;60218.38;;;-140.67;100.00
2294;BME280;1155;42.644;23.264;2023-05-01T12:01:12;60195.84;;;-140.67;100.00
2294;BME280;1155;42.644;23.264;2023-05-01T12:04:26;60210.19;;;-140.67;100.00
2294;BME280;1155;42.644;23.264;2023-05-01T12:07:44;60220.41;;;-140.67;81.99
2294;BME280;1155;42.644;23.264;2023-05-01T12:10:49;60202.00;;;-140.67;68.67
2294;BME280;1155;42.644;23.264;2023-05-01T12:13:41;60193.81;;;-140.67;58.84
2294;BME280;1155;42.644;23.264;2023-05-01T12:16:35;60220.41;;;-140.67;58.64
2294;BME280;1155;42.644;23.264;2023-05-01T12:19:49;60197.91;;;-140.67;59.36
2294;BME280;1155;42.644;23.264;2023-05-01T12:23:06;60220.41;;;-140.67;59.02
2294;BME280;1155;42.644;23.264;2023-05-01T12:25:55;60187.66;;;-140.67;69.32
2294;BME280;1155;42.644;23.264;2023-05-01T12:28:59;60216.31;;;-140.67;57.21
2294;BME280;1155;42.644;23.264;2023-05-01T12:32:06;60212.22;;;-140.67;43.29
2294;BME280;1155;42.644;23.264;2023-05-01T12:35:06;60251.13;;;-140.67;42.83
2294;BME280;1155;42.644;23.264;2023-05-01T12:38:41;60281.84;;;-140.67;33.37
2294;BME280;1155;42.644;23.264;2023-05-01T12:42:15;60349.44;;;-140.67;27.55
2294;BME280;1155;42.644;23.264;2023-05-01T12:45:36;60396.53;;;-140.67;25.67
2294;BME280;1155;42.644;23.264;2023-05-01T12:48:27;60417.00;;;-140.67;23.27
2294;BME280;1155;42.644;23.264;2023-05-01T12:51:25;60503.03;;;-140.67;22.06
2294;BME280;1155;42.644;23.264;2023-05-01T12:58:07;60515.31;;;-140.67;20.71
2294;BME280;1155;42.644;23.264;2023-05-01T13:01:05;60490.75;;;-140.67;19.78
2294;BME280;1155;42.644;23.264;2023-05-01T13:04:05;60580.84;;;-140.67;19.27
2294;BME280;1155;42.644;23.264;2023-05-01T13:07:08;60558.31;;;-140.67;19.43
2294;BME280;1155;42.644;23.264;2023-05-01T13:13:38;60400.63;;;-140.67;22.09
2294;BME280;1155;42.644;23.264;2023-05-01T13:17:07;60374.00;;;-140.67;22.70
2294;BME280;1155;42.644;23.264;2023-05-01T13:20:04;60275.72;;;-140.67;25.23
2294;BME280;1155;42.644;23.264;2023-05-01T13:23:21;60236.81;;;-140.67;26.92
2294;BME280;1155;42.644;23.264;2023-05-01T13:26:25;60232.72;;;-140.67;27.42
2294;BME280;1155;42.644;23.264;2023-05-01T13:29:49;60245.00;;;-140.67;28.50
2294;BME280;1155;42.644;23.264;2023-05-01T13:36:05;60333.06;;;-140.67;26.19
2294;BME280;1155;42.644;23.264;2023-05-01T13:38:44;60335.09;;;-140.67;24.55
2294;BME280;1155;42.644;23.264;2023-05-01T13:41:27;60392.44;;;-140.67;24.17
2294;BME280;1155;42.644;23.264;2023-05-01T13:44:15;60353.53;;;-140.67;24.56
2294;BME280;1155;42.644;23.264;2023-05-01T13:47:16;60269.56;;;-140.67;26.49
2294;BME280;1155;42.644;23.264;2023-05-01T13:50:17;60253.19;;;-140.67;28.25
2294;BME280;1155;42.644;23.264;2023-05-01T13:53:13;60232.72;;;-140.67;30.20
2294;BME280;1155;42.644;23.264;2023-05-01T13:56:11;60208.13;;;-140.67;31.95
2294;BME280;1155;42.644;23.264;2023-05-01T13:59:11;60314.63;;;-140.67;26.35
2294;BME280;1155;42.644;23.264;2023-05-01T14:02:05;60408.81;;;-140.67;23.87
2294;BME280;1155;42.644;23.264;2023-05-01T14:05:29;60527.59;;;-140.67;21.07
2294;BME280;1155;42.644;23.264;2023-05-01T14:08:33;60572.66;;;-140.67;20.08
2294;BME280;1155;42.644;23.264;2023-05-01T14:11:43;60523.50;;;-140.67;19.83
2294;BME280;1155;42.644;23.264;2023-05-01T14:14:22;60431.34;;;-140.67;21.61
2294;BME280;1155;42.644;23.264;2023-05-01T14:17:36;60425.19;;;-140.67;21.61
2294;BME280;1155;42.644;23.264;2023-05-01T14:20:42;60521.47;;;-140.67;20.68
2294;BME280;1155;42.644;23.264;2023-05-01T14:23:31;60543.97;;;-140.67;20.25
2294;BME280;1155;42.644;23.264;2023-05-01T14:26:17;60455.91;;;-140.67;21.58
2294;BME280;1155;42.644;23.264;2023-05-01T14:29:20;60455.91;;;-140.67;21.66
2294;BME280;1155;42.644;23.264;2023-05-01T14:36:04;60466.16;;;-140.67;20.84
2294;BME280;1155;42.644;23.264;2023-05-01T14:39:09;60503.03;;;-140.67;21.12
2294;BME280;1155;42.644;23.264;2023-05-01T14:42:11;60484.59;;;-140.67;21.16
2294;BME280;1155;42.644;23.264;2023-05-01T14:45:10;60494.84;;;-140.67;20.93
2294;BME280;1155;42.644;23.264;2023-05-01T14:48:02;60494.84;;;-140.67;20.47
2294;BME280;1155;42.644;23.264;2023-05-01T14:50:46;60494.84;;;-140.67;20.63
2294;BME280;1155;42.644;23.264;2023-05-01T14:53:34;60503.03;;;-140.67;20.81
2294;BME280;1155;42.644;23.264;2023-05-01T14:56:24;60474.34;;;-140.67;20.79
2294;BME280;1155;42.644;23.264;2023-05-01T14:59:41;60466.16;;;-140.67;21.12
2294;BME280;1155;42.644;23.264;2023-05-01T15:02:39;60421.09;;;-140.67;21.42
2294;BME280;1155;42.644;23.264;2023-05-01T15:05:46;60388.34;;;-140.67;22.03
2294;BME280;1155;42.644;23.264;2023-05-01T15:08:52;60353.53;;;-140.67;22.61
2294;BME280;1155;42.644;23.264;2023-05-01T15:12:04;60374.00;;;-140.67;22.59
2294;BME280;1155;42.644;23.264;2023-05-01T15:14:55;60408.81;;;-140.67;22.50
2294;BME280;1155;42.644;23.264;2023-05-01T15:17:25;60400.63;;;-140.67;21.67
2294;BME280;1155;42.644;23.264;2023-05-01T15:20:17;60384.25;;;-140.67;21.86
2294;BME280;1155;42.644;23.264;2023-05-01T15:22:49;60363.78;;;-140.67;22.53
2294;BME280;1155;42.644;23.264;2023-05-01T15:25:24;60388.34;;;-140.67;22.50
2294;BME280;1155;42.644;23.264;2023-05-01T15:28:04;60376.06;;;-140.67;22.14
2294;BME280;1155;42.644;23.264;2023-05-01T15:30:51;60374.00;;;-140.67;22.51
2294;BME280;1155;42.644;23.264;2023-05-01T15:34:04;60335.09;;;-140.67;22.74
2294;BME280;1155;42.644;23.264;2023-05-01T15:37:00;60269.56;;;-140.67;24.78
2294;BME280;1155;42.644;23.264;2023-05-01T15:39:55;60232.72;;;-140.67;27.06
2294;BME280;1155;42.644;23.264;2023-05-01T15:42:56;60220.41;;;-140.67;28.50
2294;BME280;1155;42.644;23.264;2023-05-01T15:45:43;60216.31;;;-140.67;30.01
2294;BME280;1155;42.644;23.264;2023-05-01T15:48:42;60177.41;;;-140.67;31.64
2294;BME280;1155;42.644;23.264;2023-05-01T15:51:31;60175.38;;;-140.67;33.00
2294;BME280;1155;42.644;23.264;2023-05-01T15:54:44;60179.47;;;-140.67;33.30
2294;BME280;1155;42.644;23.264;2023-05-01T15:57:18;60175.38;;;-140.67;33.80
2294;BME280;1155;42.644;23.264;2023-05-01T16:00:00;60144.66;;;-140.67;33.38
2294;BME280;1155;42.644;23.264;2023-05-01T16:02:34;60173.31;;;-140.67;33.92
2294;BME280;1155;42.644;23.264;2023-05-01T16:05:13;60159.00;;;-140.67;34.29
2294;BME280;1155;42.644;23.264;2023-05-01T16:07:58;60154.91;;;-140.67;34.79
2294;BME280;1155;42.644;23.264;2023-05-01T16:10:33;60183.56;;;-140.67;34.23
2294;BME280;1155;42.644;23.264;2023-05-01T16:13:04;60179.47;;;-140.67;34.87
2294;BME280;1155;42.644;23.264;2023-05-01T16:15:51;60163.09;;;-140.67;35.03
2294;BME280;1155;42.644;23.264;2023-05-01T16:18:36;60163.09;;;-140.67;35.35
2294;BME280;1155;42.644;23.264;2023-05-01T16:21:18;60169.22;;;-140.67;36.25
2294;BME280;1155;42.644;23.264;2023-05-01T16:24:02;60159.00;;;-140.67;37.60
2294;BME280;1155;42.644;23.264;2023-05-01T16:26:41;60159.00;;;-140.67;38.50
2294;BME280;1155;42.644;23.264;2023-05-01T16:29:18;60179.47;;;-140.67;39.89
2294;BME280;1155;42.644;23.264;2023-05-01T16:31:58;60179.47;;;-140.67;40.67
2294;BME280;1155;42.644;23.264;2023-05-01T16:34:34;60134.41;;;-140.67;41.90
2294;BME280;1155;42.644;23.264;2023-05-01T16:37:28;60156.94;;;-140.67;43.27
2294;BME280;1155;42.644;23.264;2023-05-01T16:40:19;60116.00;;;-140.67;43.43
2294;BME280;1155;42.644;23.264;2023-05-01T16:43:10;60154.91;;;-140.67;43.03
2294;BME280;1155;42.644;23.264;2023-05-01T16:46:25;60142.59;;;-140.67;42.92
2294;BME280;1155;42.644;23.264;2023-05-01T16:53:01;60126.22;;;-140.67;45.22
2294;BME280;1155;42.644;23.264;2023-05-01T16:56:31;60173.31;;;-140.67;46.24
2294;BME280;1155;42.644;23.264;2023-05-01T16:59:43;60148.75;;;-140.67;46.06